Maryus, Virginia
Current Conditions -  °F | °C
As of 11:04 AM on Monday 22 Dec 2014 (Local Time) from KPHF Reporting Station
Moderate Rain Moderate Rain  
Wind Chill: 39°   Ceiling: 500
Heat Index: 44°   Visibility: 1.5mi
Dew Point: 40°   Wind: 9mph
Humidity: 85%   Direction: 30°NNE
Pressure: 30.19"   Gusts: NA
Location:  37.28°N, 76.4°W
Report Text: KPHF 221604Z 03008KT 1 1/2SM RA BR OVC005 07/04 A3019 RMK AO2 P0002 T00670044
Loading
Personal Weather Stations






























Interactive Weather Map New forecast layout! Learn more

10-Day Weather Forecast

Advertisements
Track Severe Weather on mobile